Time;durP1;ratioP1;P1;durP2;ratioP2;P2;SDS_P1;SDS_P2;PMS_P1;PMS_P2;Temp;Humidity;BMP_temperature;BMP_pressure;BME280_temperature;BME280_humidity;BME280_pressure;Samples;Min_cycle;Max_cycle;Signal;HPM_P1;HPM_P2
2022/07/02 00:02:26;;;;;;;;;;;;;;;23.61;79.04;97067.41;581576;244;63832;-71
2022/07/02 00:04:59;;;;;;;;;;;;;;;23.61;79.11;97063.94;581600;244;68647;-71
2022/07/02 00:07:27;;;;;;;;;;;;;;;23.60;79.11;97068.52;581493;243;66378;-71
2022/07/02 00:09:55;;;;;;;;;;;;;;;23.61;79.12;97069.30;581581;244;63024;-71
2022/07/02 00:12:23;;;;;;;;;;;;;;;23.60;79.13;97073.87;581592;244;68532;-71
2022/07/02 00:14:52;;;;;;;;;;;;;;;23.61;79.06;97059.37;581643;244;68487;-71
2022/07/02 00:17:20;;;;;;;;;;;;;;;23.61;79.09;97055.89;581588;244;65309;-71
2022/07/02 00:19:48;;;;;;;;;;;;;;;23.60;79.08;97057.78;581544;244;68641;-71
2022/07/02 00:22:16;;;;;;;;;;;;;;;23.60;79.06;97063.14;581574;244;66715;-71
2022/07/02 00:24:44;;;;;;;;;;;;;;;23.61;79.03;97058.57;581600;244;62999;-71
2022/07/02 00:27:13;;;;;;;;;;;;;;;23.61;79.12;97063.94;581624;244;66595;-71
2022/07/02 00:29:53;;;;;;;;;;;;;;;23.61;79.18;97059.37;581437;243;47370;-71
2022/07/02 00:32:20;;;;;;;;;;;;;;;23.60;79.22;97062.32;581526;244;62815;-71
2022/07/02 00:34:49;;;;;;;;;;;;;;;23.61;79.32;97063.94;581569;244;68621;-71
2022/07/02 00:37:20;;;;;;;;;;;;;;;23.61;79.31;97070.09;581507;243;48630;-71
2022/07/02 00:39:47;;;;;;;;;;;;;;;23.60;79.20;97063.14;581626;244;65149;-71
2022/07/02 00:42:15;;;;;;;;;;;;;;;23.60;79.27;97065.83;581639;244;68132;-71
2022/07/02 00:44:42;;;;;;;;;;;;;;;23.60;79.35;97065.83;581593;244;68450;-70
2022/07/02 00:47:11;;;;;;;;;;;;;;;23.60;79.32;97065.83;581565;244;64984;-70
2022/07/02 00:49:38;;;;;;;;;;;;;;;23.60;79.35;97071.20;581622;244;68655;-70
2022/07/02 00:52:06;;;;;;;;;;;;;;;23.59;79.32;97061.53;581553;244;68554;-70
2022/07/02 00:54:38;;;;;;;;;;;;;;;23.60;79.40;97056.95;579751;244;65034;-70
2022/07/02 00:57:06;;;;;;;;;;;;;;;23.59;79.36;97053.48;578231;245;66439;-70
2022/07/02 00:59:34;;;;;;;;;;;;;;;23.59;79.46;97064.21;578168;245;68534;-70
2022/07/02 01:02:01;;;;;;;;;;;;;;;23.60;79.36;97062.32;578230;245;64875;-70
2022/07/02 01:04:32;;;;;;;;;;;;;;;23.59;79.38;97064.21;578239;245;68347;-70
2022/07/02 01:07:02;;;;;;;;;;;;;;;23.59;79.33;97066.10;578250;245;66624;-70
2022/07/02 01:12:16;;;;;;;;;;;;;;;23.60;79.37;97063.14;578224;245;68465;-70
2022/07/02 01:14:45;;;;;;;;;;;;;;;23.59;79.31;97061.53;578203;245;68529;-70
2022/07/02 01:17:13;;;;;;;;;;;;;;;23.59;79.41;97061.53;578234;245;65052;-70
2022/07/02 01:19:40;;;;;;;;;;;;;;;23.60;79.50;97062.32;578231;245;68380;-70
2022/07/02 01:22:12;;;;;;;;;;;;;;;23.59;79.42;97058.84;578241;245;68368;-70
2022/07/02 01:24:40;;;;;;;;;;;;;;;23.59;79.46;97058.84;578233;245;62910;-70
2022/07/02 01:27:08;;;;;;;;;;;;;;;23.59;79.42;97048.11;578232;245;66147;-70
2022/07/02 01:29:36;;;;;;;;;;;;;;;23.59;79.42;97056.16;578230;245;68068;-71
2022/07/02 01:32:04;;;;;;;;;;;;;;;23.59;79.45;97053.48;578232;245;62887;-71
2022/07/02 01:34:39;;;;;;;;;;;;;;;23.60;79.41;97059.64;578204;245;68723;-71
2022/07/02 01:37:10;;;;;;;;;;;;;;;23.60;79.36;97060.46;578218;245;66603;-71
2022/07/02 01:39:39;;;;;;;;;;;;;;;23.59;79.41;97053.48;578215;245;64898;-71
2022/07/02 01:42:07;;;;;;;;;;;;;;;23.59;79.46;97056.16;578238;245;68395;-71
2022/07/02 01:44:35;;;;;;;;;;;;;;;23.60;79.42;97062.32;578184;245;68413;-71
2022/07/02 01:47:03;;;;;;;;;;;;;;;23.59;79.47;97061.53;578223;245;65110;-71
2022/07/02 01:49:31;;;;;;;;;;;;;;;23.59;79.47;97058.84;578241;245;65935;-71
2022/07/02 01:51:59;;;;;;;;;;;;;;;23.59;79.54;97055.38;578182;245;66244;-71
2022/07/02 01:54:26;;;;;;;;;;;;;;;23.59;79.51;97050.80;579927;244;62744;-71
2022/07/02 01:56:54;;;;;;;;;;;;;;;23.59;79.48;97060.73;581595;244;65934;-71
2022/07/02 01:59:21;;;;;;;;;;;;;;;23.59;79.47;97058.84;581604;244;68329;-71
2022/07/02 02:01:49;;;;;;;;;;;;;;;23.59;79.43;97064.21;581631;244;62763;-71
2022/07/02 02:04:16;;;;;;;;;;;;;;;23.60;79.45;97065.00;581636;244;66504;-71
2022/07/02 02:06:44;;;;;;;;;;;;;;;23.59;79.40;97066.89;581609;244;66236;-71
2022/07/02 02:09:11;;;;;;;;;;;;;;;23.59;79.36;97064.21;581628;244;62711;-71
2022/07/02 02:11:39;;;;;;;;;;;;;;;23.59;79.42;97058.84;581633;244;66303;-70
2022/07/02 02:14:06;;;;;;;;;;;;;;;23.59;79.34;97064.21;581621;244;68438;-70
2022/07/02 02:16:34;;;;;;;;;;;;;;;23.60;79.29;97060.46;581640;244;63899;-70
2022/07/02 02:19:01;;;;;;;;;;;;;;;23.59;79.17;97061.53;581634;244;68573;-70
2022/07/02 02:21:29;;;;;;;;;;;;;;;23.59;79.17;97053.48;581622;244;68329;-70
2022/07/02 02:23:57;;;;;;;;;;;;;;;23.59;79.22;97064.21;581637;244;65188;-70
2022/07/02 02:26:25;;;;;;;;;;;;;;;23.59;79.16;97058.84;581574;244;66216;-70
2022/07/02 02:28:54;;;;;;;;;;;;;;;23.59;79.17;97066.89;581644;244;68241;-71
2022/07/02 02:31:24;;;;;;;;;;;;;;;23.60;79.28;97073.05;581624;244;64856;-71
2022/07/02 02:33:51;;;;;;;;;;;;;;;23.59;79.26;97069.58;581627;244;69243;-71
2022/07/02 02:36:19;;;;;;;;;;;;;;;23.60;79.24;97073.87;581625;244;68364;-71
2022/07/02 02:38:47;;;;;;;;;;;;;;;23.59;79.23;97069.58;581638;244;62963;-71
2022/07/02 02:41:15;;;;;;;;;;;;;;;23.59;79.24;97074.15;581660;244;68247;-71
2022/07/02 02:43:42;;;;;;;;;;;;;;;23.58;79.18;97073.36;581615;244;67998;-70
2022/07/02 02:46:10;;;;;;;;;;;;;;;23.59;79.06;97079.52;581623;244;64769;-70
2022/07/02 02:48:38;;;;;;;;;;;;;;;23.59;79.07;97084.88;581618;244;68375;-70
2022/07/02 02:51:06;;;;;;;;;;;;;;;23.58;79.15;97086.77;581613;244;68576;-70
2022/07/02 02:53:34;;;;;;;;;;;;;;;23.59;79.28;97082.99;581154;244;62770;-70
2022/07/02 02:56:02;;;;;;;;;;;;;;;23.59;79.24;97085.67;578275;245;68189;-70
2022/07/02 02:58:30;;;;;;;;;;;;;;;23.60;79.20;97089.15;578245;245;66339;-70
2022/07/02 03:00:57;;;;;;;;;;;;;;;23.58;79.21;97092.14;578243;245;62800;-70
2022/07/02 03:03:25;;;;;;;;;;;;;;;23.59;79.17;97095.61;578242;245;66161;-70
2022/07/02 03:05:52;;;;;;;;;;;;;;;23.59;79.17;97095.61;578265;245;66290;-71
2022/07/02 03:08:20;;;;;;;;;;;;;;;23.59;79.32;97101.77;578290;245;62923;-71
2022/07/02 03:10:47;;;;;;;;;;;;;;;23.59;79.29;97104.45;578211;245;66232;-71
2022/07/02 03:13:15;;;;;;;;;;;;;;;23.59;79.26;97104.45;578251;245;66245;-71
2022/07/02 03:15:43;;;;;;;;;;;;;;;23.59;79.32;97107.13;578224;245;62783;-71
2022/07/02 03:18:10;;;;;;;;;;;;;;;23.59;79.40;97112.50;578238;245;66348;-71
2022/07/02 03:20:38;;;;;;;;;;;;;;;23.59;79.46;97111.70;578283;245;66318;-71
2022/07/02 03:23:05;;;;;;;;;;;;;;;23.58;79.35;97110.91;578216;245;62767;-71
2022/07/02 03:25:33;;;;;;;;;;;;;;;23.59;79.30;97106.34;578232;245;66206;-71
2022/07/02 03:28:00;;;;;;;;;;;;;;;23.59;79.36;97109.02;578233;245;66263;-71
2022/07/02 03:30:28;;;;;;;;;;;;;;;23.58;79.37;97108.23;578254;245;65159;-71
2022/07/02 03:32:55;;;;;;;;;;;;;;;23.59;79.38;97106.34;578325;245;68231;-71
2022/07/02 03:35:23;;;;;;;;;;;;;;;23.58;79.39;97102.07;578240;245;68116;-71
2022/07/02 03:37:50;;;;;;;;;;;;;;;23.58;79.53;97097.50;578243;245;64913;-71
2022/07/02 03:40:18;;;;;;;;;;;;;;;23.58;79.48;97100.19;578228;245;68127;-71
2022/07/02 03:42:45;;;;;;;;;;;;;;;23.58;79.44;97116.28;578258;245;68029;-71
2022/07/02 03:45:13;;;;;;;;;;;;;;;23.58;79.46;97110.13;578232;245;65229;-71
2022/07/02 03:47:40;;;;;;;;;;;;;;;23.58;79.49;97113.59;578257;245;68131;-71
2022/07/02 03:50:08;;;;;;;;;;;;;;;23.58;79.54;97115.48;578214;245;68257;-71
2022/07/02 03:52:38;;;;;;;;;;;;;;;23.58;79.56;97127.01;578249;245;65012;-71
2022/07/02 03:55:05;;;;;;;;;;;;;;;23.58;79.56;97121.64;580849;244;68160;-71
2022/07/02 03:57:33;;;;;;;;;;;;;;;23.57;79.49;97125.42;581617;244;68309;-70
2022/07/02 04:00:00;;;;;;;;;;;;;;;23.58;79.56;97120.84;581608;244;65155;-70
2022/07/02 04:02:28;;;;;;;;;;;;;;;23.58;79.55;97118.96;581602;244;68339;-70
2022/07/02 04:04:55;;;;;;;;;;;;;;;23.58;79.65;97120.84;581581;244;68585;-70
2022/07/02 04:07:23;;;;;;;;;;;;;;;23.57;79.59;97120.05;581650;244;64897;-70
2022/07/02 04:09:50;;;;;;;;;;;;;;;23.57;79.62;97122.73;581600;244;68401;-70
2022/07/02 04:12:18;;;;;;;;;;;;;;;23.58;79.66;97127.01;581600;244;68405;-70
2022/07/02 04:14:45;;;;;;;;;;;;;;;23.57;79.62;97125.42;581605;244;64884;-71
2022/07/02 04:17:13;;;;;;;;;;;;;;;23.57;79.71;97128.11;581604;244;66149;-71
2022/07/02 04:19:40;;;;;;;;;;;;;;;23.58;79.67;97134.27;581604;244;66270;-71
2022/07/02 04:22:07;;;;;;;;;;;;;;;23.57;79.58;97122.73;581668;244;62898;-71
2022/07/02 04:24:35;;;;;;;;;;;;;;;23.57;79.59;97128.11;581601;244;65917;-71
2022/07/02 04:27:02;;;;;;;;;;;;;;;23.57;79.69;97128.11;581605;244;66244;-71
2022/07/02 04:29:30;;;;;;;;;;;;;;;23.57;79.60;97125.42;581568;244;62724;-71
2022/07/02 04:31:57;;;;;;;;;;;;;;;23.57;79.62;97128.11;581560;244;66452;-71
2022/07/02 04:34:25;;;;;;;;;;;;;;;23.57;79.61;97130.78;581635;244;66324;-71
2022/07/02 04:36:52;;;;;;;;;;;;;;;23.57;79.62;97130.78;581599;244;62803;-71
2022/07/02 04:39:20;;;;;;;;;;;;;;;23.58;79.64;97129.69;581594;244;66009;-71
2022/07/02 04:41:47;;;;;;;;;;;;;;;23.57;79.68;97132.64;581615;244;66236;-71
2022/07/02 04:44:15;;;;;;;;;;;;;;;23.58;79.73;97132.38;581556;244;62761;-71
2022/07/02 04:46:42;;;;;;;;;;;;;;;23.57;79.69;97130.78;581649;244;68620;-71
2022/07/02 04:49:10;;;;;;;;;;;;;;;23.58;79.72;97140.42;581572;244;68634;-71
2022/07/02 04:51:38;;;;;;;;;;;;;;;23.58;79.70;97142.31;581553;244;62682;-71
2022/07/02 04:54:05;;;;;;;;;;;;;;;23.57;79.71;97133.47;581519;244;66519;-71
2022/07/02 04:56:33;;;;;;;;;;;;;;;23.58;79.79;97139.62;581576;244;68646;-71
2022/07/02 04:59:00;;;;;;;;;;;;;;;23.56;79.87;97139.90;581420;244;64965;-71
2022/07/02 05:01:28;;;;;;;;;;;;;;;23.57;79.82;97138.84;581493;244;66509;-70
2022/07/02 05:03:55;;;;;;;;;;;;;;;23.57;79.74;97138.84;581525;244;68654;-71
2022/07/02 05:06:23;;;;;;;;;;;;;;;23.58;79.75;97145.00;581541;244;64875;-71
2022/07/02 05:08:51;;;;;;;;;;;;;;;23.58;79.76;97145.00;581446;244;68882;-71
2022/07/02 05:11:19;;;;;;;;;;;;;;;23.58;79.83;97137.73;581524;244;68284;-71
2022/07/02 05:13:47;;;;;;;;;;;;;;;23.58;79.77;97150.36;581316;244;63935;-71
2022/07/02 05:16:15;;;;;;;;;;;;;;;23.58;79.79;97145.79;581512;244;66399;-71
2022/07/02 05:18:43;;;;;;;;;;;;;;;23.58;79.79;97151.16;580477;244;68989;-71
2022/07/02 05:21:10;;;;;;;;;;;;;;;23.58;79.82;97145.00;580683;244;64872;-71
2022/07/02 05:23:38;;;;;;;;;;;;;;;23.58;79.86;97145.79;581495;244;68654;-71
2022/07/02 05:26:05;;;;;;;;;;;;;;;23.58;79.81;97151.16;581614;244;68602;-71
2022/07/02 05:28:33;;;;;;;;;;;;;;;23.58;79.79;97151.16;581568;244;64964;-71
2022/07/02 05:31:00;;;;;;;;;;;;;;;23.60;79.88;97145.48;581571;244;68740;-71
2022/07/02 05:33:28;;;;;;;;;;;;;;;23.58;79.75;97140.42;581491;244;68639;-71
2022/07/02 05:35:55;;;;;;;;;;;;;;;23.59;79.89;97147.38;581583;244;64890;-70
2022/07/02 05:38:25;;;;;;;;;;;;;;;23.58;79.85;97156.52;581632;244;48329;-71
2022/07/02 05:40:52;;;;;;;;;;;;;;;23.59;79.83;97160.78;581530;244;68538;-71
2022/07/02 05:43:20;;;;;;;;;;;;;;;23.58;79.70;97155.72;581523;244;65926;-71
2022/07/02 05:45:48;;;;;;;;;;;;;;;23.58;79.83;97145.79;581582;244;68990;-71
2022/07/02 05:48:16;;;;;;;;;;;;;;;23.58;79.75;97151.16;581580;244;68753;-71
2022/07/02 05:50:44;;;;;;;;;;;;;;;23.59;79.82;97158.11;581608;244;64929;-71
2022/07/02 05:53:11;;;;;;;;;;;;;;;23.59;79.81;97163.47;581537;244;68707;-71
2022/07/02 05:55:39;;;;;;;;;;;;;;;23.59;79.94;97158.11;581573;244;66473;-71
2022/07/02 05:58:07;;;;;;;;;;;;;;;23.58;79.90;97156.52;581610;244;62832;-71
2022/07/02 06:00:34;;;;;;;;;;;;;;;23.58;79.94;97156.52;581591;244;69601;-71
2022/07/02 06:03:02;;;;;;;;;;;;;;;23.58;79.90;97161.88;581630;244;68787;-71
2022/07/02 06:08:15;;;;;;;;;;;;;;;23.58;79.94;97155.72;581538;244;66335;-71
2022/07/02 06:10:42;;;;;;;;;;;;;;;23.58;79.97;97161.09;581584;244;66482;-71
2022/07/02 06:13:10;;;;;;;;;;;;;;;23.58;80.00;97158.41;581565;244;62741;-71
2022/07/02 06:15:37;;;;;;;;;;;;;;;23.55;79.78;97154.41;581589;244;66426;-71
2022/07/02 06:18:05;;;;;;;;;;;;;;;23.57;78.97;97154.93;581595;244;68409;-71
2022/07/02 06:20:32;;;;;;;;;;;;;;;23.58;78.90;97153.84;581567;244;64909;-71
2022/07/02 06:23:00;;;;;;;;;;;;;;;23.59;79.25;97163.47;581581;244;66612;-71
2022/07/02 06:25:27;;;;;;;;;;;;;;;23.59;78.95;97163.47;581590;244;66479;-71
2022/07/02 06:27:55;;;;;;;;;;;;;;;23.59;79.07;97166.16;581582;244;62775;-71
2022/07/02 06:30:23;;;;;;;;;;;;;;;23.60;79.10;97170.45;581615;244;66533;-71
2022/07/02 06:32:51;;;;;;;;;;;;;;;23.61;79.25;97171.25;581456;243;68900;-71
2022/07/02 06:35:19;;;;;;;;;;;;;;;23.60;79.31;97170.45;581553;244;64922;-71
2022/07/02 06:37:46;;;;;;;;;;;;;;;23.61;79.37;97169.36;581593;244;68689;-71
2022/07/02 06:40:14;;;;;;;;;;;;;;;23.62;79.86;97173.63;581550;244;68624;-71
2022/07/02 06:42:41;;;;;;;;;;;;;;;23.61;79.74;97172.05;581601;244;65016;-71
2022/07/02 06:45:09;;;;;;;;;;;;;;;23.62;79.99;97168.27;581588;244;66126;-71
2022/07/02 06:47:39;;;;;;;;;;;;;;;23.62;80.32;97168.27;581605;244;66444;-71
2022/07/02 06:50:07;;;;;;;;;;;;;;;23.61;80.52;97166.67;581571;243;62832;-71
2022/07/02 06:52:34;;;;;;;;;;;;;;;23.62;80.74;97167.47;581571;244;68328;-71
2022/07/02 06:55:02;;;;;;;;;;;;;;;23.61;80.92;97174.72;581565;244;68616;-71
2022/07/02 06:57:29;;;;;;;;;;;;;;;23.63;81.04;97169.09;581599;244;64975;-71
2022/07/02 06:59:57;;;;;;;;;;;;;;;23.61;81.11;97164.00;581602;244;66485;-70
2022/07/02 07:02:24;;;;;;;;;;;;;;;23.62;81.27;97167.47;581601;244;67416;-71
2022/07/02 07:04:52;;;;;;;;;;;;;;;23.62;81.29;97162.90;581585;244;62788;-71
2022/07/02 07:07:25;;;;;;;;;;;;;;;23.62;81.25;97170.95;581605;244;66590;-71
2022/07/02 07:09:48;;;;;;;;;;;;;;;23.63;81.37;97175.25;581478;243;68393;-71
2022/07/02 07:12:16;;;;;;;;;;;;;;;23.63;81.33;97180.61;581580;244;65309;-71
2022/07/02 07:14:43;;;;;;;;;;;;;;;23.64;81.40;97182.20;581601;244;68619;-71
2022/07/02 07:17:11;;;;;;;;;;;;;;;23.63;81.35;97180.61;581597;244;68636;-71
2022/07/02 07:19:38;;;;;;;;;;;;;;;23.62;81.32;97173.63;581585;244;62737;-71
2022/07/02 07:22:06;;;;;;;;;;;;;;;23.64;81.29;97179.52;581638;244;66430;-70
2022/07/02 07:24:33;;;;;;;;;;;;;;;23.64;81.17;97186.77;581589;244;68572;-71
2022/07/02 07:27:01;;;;;;;;;;;;;;;23.64;81.16;97186.77;581584;244;65309;-71
2022/07/02 07:29:28;;;;;;;;;;;;;;;23.64;81.14;97190.25;581597;244;68548;-71
2022/07/02 07:31:56;;;;;;;;;;;;;;;23.65;81.06;97193.73;581589;244;68518;-71
2022/07/02 07:34:23;;;;;;;;;;;;;;;23.64;81.13;97192.94;581623;244;65098;-71
2022/07/02 07:36:52;;;;;;;;;;;;;;;23.65;81.12;97191.88;581628;244;68812;-70
2022/07/02 07:39:20;;;;;;;;;;;;;;;23.65;81.03;97191.88;581588;244;65948;-71
2022/07/02 07:41:47;;;;;;;;;;;;;;;23.65;80.93;97191.05;581628;244;63738;-71
2022/07/02 07:44:15;;;;;;;;;;;;;;;23.65;80.87;97191.88;581585;244;68543;-71
2022/07/02 07:46:42;;;;;;;;;;;;;;;23.66;80.93;97200.71;581599;244;66519;-71
2022/07/02 07:49:11;;;;;;;;;;;;;;;23.66;80.91;97193.45;581649;244;62819;-71
2022/07/02 07:51:38;;;;;;;;;;;;;;;23.66;80.92;97196.14;581627;244;68360;-71
2022/07/02 07:54:06;;;;;;;;;;;;;;;23.66;80.84;97196.14;581505;244;69156;-71
2022/07/02 07:56:33;;;;;;;;;;;;;;;23.67;80.95;97195.05;581603;244;63730;-71
2022/07/02 07:59:01;;;;;;;;;;;;;;;23.66;80.88;97196.14;581626;244;66258;-71
2022/07/02 08:01:28;;;;;;;;;;;;;;;23.67;80.91;97194.25;581635;244;66541;-71
2022/07/02 08:03:56;;;;;;;;;;;;;;;23.66;80.84;97198.83;581603;244;63598;-71
2022/07/02 08:06:23;;;;;;;;;;;;;;;23.67;80.83;97192.36;581564;244;68372;-71
2022/07/02 08:08:52;;;;;;;;;;;;;;;23.67;80.82;97200.41;581589;244;68553;-71
2022/07/02 08:11:19;;;;;;;;;;;;;;;23.67;80.82;97202.30;581567;244;64913;-71
2022/07/02 08:13:47;;;;;;;;;;;;;;;23.67;80.70;97197.73;581646;244;68909;-71
2022/07/02 08:16:14;;;;;;;;;;;;;;;23.67;80.64;97195.05;581572;244;68692;-71
2022/07/02 08:18:42;;;;;;;;;;;;;;;23.68;80.63;97202.03;581583;244;62790;-71
2022/07/02 08:21:09;;;;;;;;;;;;;;;23.69;80.58;97208.19;581580;244;66685;-71
2022/07/02 08:23:37;;;;;;;;;;;;;;;23.68;80.63;97202.03;581576;244;66480;-71
2022/07/02 08:26:04;;;;;;;;;;;;;;;23.69;80.54;97208.19;581645;244;64913;-71
2022/07/02 08:28:32;;;;;;;;;;;;;;;23.69;80.49;97206.30;581610;244;68690;-71
2022/07/02 08:30:59;;;;;;;;;;;;;;;23.69;80.54;97214.35;581574;244;68551;-71
2022/07/02 08:33:27;;;;;;;;;;;;;;;23.69;80.62;97206.30;581577;244;64856;-71
2022/07/02 08:35:54;;;;;;;;;;;;;;;23.69;80.65;97208.98;581540;244;66593;-71
2022/07/02 08:38:22;;;;;;;;;;;;;;;23.69;80.55;97217.03;581636;244;66584;-71
2022/07/02 08:40:50;;;;;;;;;;;;;;;23.70;80.55;97215.94;581627;244;64954;-71
2022/07/02 08:43:18;;;;;;;;;;;;;;;23.70;80.42;97217.83;581594;244;66501;-71
2022/07/02 08:45:45;;;;;;;;;;;;;;;23.70;80.37;97217.83;581560;244;68813;-71
2022/07/02 08:48:13;;;;;;;;;;;;;;;23.71;80.38;97214.11;581537;244;62779;-71
2022/07/02 08:50:41;;;;;;;;;;;;;;;23.70;80.42;97215.94;581606;244;68653;-71
2022/07/02 08:53:08;;;;;;;;;;;;;;;23.70;80.30;97223.99;581620;244;68339;-71
2022/07/02 08:55:36;;;;;;;;;;;;;;;23.71;80.33;97219.48;578235;244;64780;-71
2022/07/02 08:58:05;;;;;;;;;;;;;;;23.72;80.33;97231.00;578217;245;68756;-71
2022/07/02 09:00:33;;;;;;;;;;;;;;;23.72;80.29;97222.95;578147;245;68895;-71
2022/07/02 09:03:01;;;;;;;;;;;;;;;23.71;80.26;97216.80;578201;245;65446;-71
2022/07/02 09:05:30;;;;;;;;;;;;;;;23.72;80.24;97225.64;578271;245;68892;-71
2022/07/02 09:07:58;;;;;;;;;;;;;;;23.71;80.17;97219.48;578211;245;66698;-71
2022/07/02 09:10:26;;;;;;;;;;;;;;;23.73;80.14;97229.91;578197;245;65117;-71
2022/07/02 09:12:55;;;;;;;;;;;;;;;23.73;80.07;97222.66;578205;245;68684;-70
2022/07/02 09:15:23;;;;;;;;;;;;;;;23.73;80.17;97224.55;578168;245;67488;-69
2022/07/02 09:17:51;;;;;;;;;;;;;;;23.72;80.24;97226.44;578271;245;64959;-69
2022/07/02 09:20:20;;;;;;;;;;;;;;;23.73;80.20;97227.23;578062;245;68533;-70
2022/07/02 09:22:49;;;;;;;;;;;;;;;23.72;80.12;97225.64;578204;245;68504;-70
2022/07/02 09:25:17;;;;;;;;;;;;;;;23.73;80.21;97219.18;578192;245;62951;-70
2022/07/02 09:27:46;;;;;;;;;;;;;;;23.73;80.06;97221.86;578181;245;70007;-69
2022/07/02 09:30:16;;;;;;;;;;;;;;;23.72;80.10;97221.06;578189;245;68592;-69
2022/07/02 09:32:45;;;;;;;;;;;;;;;23.73;80.19;97225.34;578202;243;67624;-69
2022/07/02 09:35:20;;;;;;;;;;;;;;;23.73;80.11;97222.66;578184;245;68752;-69
2022/07/02 09:37:48;;;;;;;;;;;;;;;23.73;80.05;97230.70;578181;245;68709;-70
2022/07/02 09:40:16;;;;;;;;;;;;;;;23.73;80.08;97216.50;578176;245;62770;-69
2022/07/02 09:42:47;;;;;;;;;;;;;;;23.73;80.17;97222.66;578234;245;66468;-70
2022/07/02 09:45:16;;;;;;;;;;;;;;;23.74;80.06;97228.84;578163;245;66745;-70
2022/07/02 09:47:53;;;;;;;;;;;;;;;23.75;80.04;97235.80;578203;245;62856;-70
2022/07/02 09:50:22;;;;;;;;;;;;;;;23.73;80.04;97228.02;578195;245;68788;-70
2022/07/02 09:52:53;;;;;;;;;;;;;;;23.75;80.00;97227.75;578139;245;68598;-70
2022/07/02 09:55:31;;;;;;;;;;;;;;;23.73;79.93;97233.39;578180;244;64953;-70
2022/07/02 09:58:00;;;;;;;;;;;;;;;23.74;79.97;97218.11;578251;245;68676;-70
2022/07/02 10:00:29;;;;;;;;;;;;;;;23.74;79.87;97226.95;578194;245;68686;-70
2022/07/02 10:02:58;;;;;;;;;;;;;;;23.74;79.89;97226.95;578192;245;62792;-69
2022/07/02 10:05:27;;;;;;;;;;;;;;;23.75;79.94;97227.75;578202;245;68812;-69
2022/07/02 10:07:55;;;;;;;;;;;;;;;23.74;79.81;97223.48;578201;245;68539;-69
2022/07/02 10:10:25;;;;;;;;;;;;;;;23.75;79.90;97227.75;578245;245;65072;-69
2022/07/02 10:12:53;;;;;;;;;;;;;;;23.75;79.86;97225.07;578039;245;68777;-69
2022/07/02 10:15:22;;;;;;;;;;;;;;;23.74;80.03;97218.91;578138;245;69224;-70
2022/07/02 10:17:51;;;;;;;;;;;;;;;23.76;79.89;97232.03;578162;245;65147;-70
2022/07/02 10:20:19;;;;;;;;;;;;;;;23.75;79.85;97233.12;578202;245;66454;-70
2022/07/02 10:22:46;;;;;;;;;;;;;;;23.75;79.86;97222.39;578217;245;67399;-70
2022/07/02 10:25:14;;;;;;;;;;;;;;;23.75;79.81;97223.18;578278;245;62959;-70
2022/07/02 10:27:42;;;;;;;;;;;;;;;23.75;79.80;97215.12;578208;245;66763;-70
2022/07/02 10:30:11;;;;;;;;;;;;;;;23.75;79.86;97217.02;578210;245;66704;-70
2022/07/02 10:32:43;;;;;;;;;;;;;;;23.76;79.72;97210.56;578256;245;65047;-70
2022/07/02 10:35:12;;;;;;;;;;;;;;;23.75;79.70;97209.77;578158;243;66150;-70
2022/07/02 10:37:40;;;;;;;;;;;;;;;23.76;79.78;97205.98;578272;245;66598;-70
2022/07/02 10:40:09;;;;;;;;;;;;;;;23.77;79.74;97212.17;578205;245;65102;-70
2022/07/02 10:42:42;;;;;;;;;;;;;;;23.76;79.70;97202.50;578188;245;69054;-70
2022/07/02 10:45:21;;;;;;;;;;;;;;;23.77;79.69;97201.44;577400;244;46606;-70
2022/07/02 10:47:58;;;;;;;;;;;;;;;23.76;79.74;97200.62;578190;245;68233;-70
2022/07/02 10:50:39;;;;;;;;;;;;;;;23.76;79.67;97205.98;578218;245;66543;-70
2022/07/02 10:53:24;;;;;;;;;;;;;;;23.77;79.73;97204.13;578164;245;68697;-70
2022/07/02 10:55:53;;;;;;;;;;;;;;;23.76;79.87;97195.25;577944;245;63081;-71
2022/07/02 10:58:22;;;;;;;;;;;;;;;23.76;79.77;97205.98;578237;245;66540;-71
2022/07/02 11:00:50;;;;;;;;;;;;;;;23.76;79.69;97199.83;578215;245;66710;-69
2022/07/02 11:03:23;;;;;;;;;;;;;;;23.77;79.70;97201.44;578223;245;64926;-69
2022/07/02 11:05:53;;;;;;;;;;;;;;;23.77;79.76;97196.08;578211;245;68858;-69
2022/07/02 11:08:38;;;;;;;;;;;;;;;23.77;79.69;97196.87;578229;245;68570;-69
2022/07/02 11:11:06;;;;;;;;;;;;;;;23.78;79.65;97197.66;578263;245;63704;-71
2022/07/02 11:13:41;;;;;;;;;;;;;;;23.78;79.68;97192.30;578191;245;67491;-71
2022/07/02 11:16:25;;;;;;;;;;;;;;;23.77;79.61;97186.14;578186;245;66467;-71
2022/07/02 11:18:53;;;;;;;;;;;;;;;23.78;79.60;97192.30;578231;245;63230;-71
2022/07/02 11:21:22;;;;;;;;;;;;;;;23.78;79.61;97186.93;578211;245;66543;-71
2022/07/02 11:23:50;;;;;;;;;;;;;;;23.77;79.69;97183.45;578240;245;68447;-71
2022/07/02 11:26:19;;;;;;;;;;;;;;;23.78;79.55;97192.30;578259;245;66148;-71
2022/07/02 11:28:48;;;;;;;;;;;;;;;23.78;79.55;97190.41;578162;243;71259;-71
2022/07/02 11:31:17;;;;;;;;;;;;;;;23.78;79.65;97189.61;578195;245;66781;-69
2022/07/02 11:33:48;;;;;;;;;;;;;;;23.78;79.65;97184.25;578212;245;62769;-69
2022/07/02 11:36:15;;;;;;;;;;;;;;;23.78;79.65;97184.25;578170;245;66500;-70
2022/07/02 11:38:48;;;;;;;;;;;;;;;23.79;79.63;97193.89;578233;245;68623;-70
2022/07/02 11:41:17;;;;;;;;;;;;;;;23.78;79.54;97187.72;578266;245;65190;-70
2022/07/02 11:43:44;;;;;;;;;;;;;;;23.79;79.53;97178.61;578192;245;67613;-70
2022/07/02 11:46:13;;;;;;;;;;;;;;;23.79;79.48;97177.78;578236;245;68433;-70
2022/07/02 11:48:41;;;;;;;;;;;;;;;23.79;79.40;97186.66;578265;245;65096;-69
2022/07/02 11:51:08;;;;;;;;;;;;;;;23.79;79.38;97185.84;578228;245;68168;-70
2022/07/02 11:53:36;;;;;;;;;;;;;;;23.79;79.41;97178.61;578198;244;67847;-70
2022/07/02 11:56:11;;;;;;;;;;;;;;;23.79;79.43;97183.15;578198;245;65925;-70
2022/07/02 11:58:46;;;;;;;;;;;;;;;23.80;79.49;97174.03;578229;245;68705;-69
2022/07/02 12:01:29;;;;;;;;;;;;;;;23.79;79.40;97183.15;578222;245;68477;-71
2022/07/02 12:04:02;;;;;;;;;;;;;;;23.80;79.45;97177.52;578216;245;64839;-73
2022/07/02 12:06:31;;;;;;;;;;;;;;;23.80;79.39;97179.41;578217;245;66411;-72
2022/07/02 12:08:59;;;;;;;;;;;;;;;23.80;79.49;97184.77;578276;245;66285;-72
2022/07/02 12:11:27;;;;;;;;;;;;;;;23.80;79.41;97168.67;578210;245;62767;-72
2022/07/02 12:13:56;;;;;;;;;;;;;;;23.80;79.35;97174.03;578211;245;69670;-72
2022/07/02 12:16:24;;;;;;;;;;;;;;;23.80;79.37;97169.46;578177;245;68871;-72
2022/07/02 12:19:02;;;;;;;;;;;;;;;23.81;79.25;97172.94;578211;245;64902;-72
2022/07/02 12:21:31;;;;;;;;;;;;;;;23.80;79.30;97164.09;578207;245;68660;-73
2022/07/02 12:23:58;;;;;;;;;;;;;;;23.80;79.30;97158.73;578242;245;66616;-72
2022/07/02 12:26:26;;;;;;;;;;;;;;;23.81;79.30;97159.52;578204;245;66044;-73
2022/07/02 12:31:48;;;;;;;;;;;;;;;23.81;79.33;97149.58;578230;245;68632;-72
2022/07/02 12:34:16;;;;;;;;;;;;;;;23.80;79.22;97153.36;578120;245;64880;-73
2022/07/02 12:36:45;;;;;;;;;;;;;;;23.81;79.18;97152.27;578187;245;68856;-73
2022/07/02 12:39:14;;;;;;;;;;;;;;;23.81;79.13;97143.42;578275;245;68425;-73
2022/07/02 12:41:42;;;;;;;;;;;;;;;23.81;79.18;97146.10;578214;245;65261;-72
2022/07/02 12:44:17;;;;;;;;;;;;;;;23.81;79.16;97154.95;578211;245;66530;-72
2022/07/02 12:46:49;;;;;;;;;;;;;;;23.82;79.23;97155.77;578109;244;66902;-71
2022/07/02 12:49:17;;;;;;;;;;;;;;;23.82;79.19;97156.56;578191;245;63033;-71
2022/07/02 12:51:56;;;;;;;;;;;;;;;23.82;79.12;97159.25;578061;245;68675;-69
2022/07/02 12:54:25;;;;;;;;;;;;;;;23.82;79.11;97164.62;579840;244;66471;-70
2022/07/02 12:56:52;;;;;;;;;;;;;;;23.82;79.12;97164.62;581532;243;62823;-69
2022/07/02 12:59:20;;;;;;;;;;;;;;;23.83;79.07;97157.36;581211;244;68694;-69
2022/07/02 13:01:47;;;;;;;;;;;;;;;23.82;79.09;97156.56;581352;244;68634;-69
2022/07/02 13:04:15;;;;;;;;;;;;;;;23.83;78.94;97160.04;581478;244;62838;-69